sensor_id;sensor_type;location;lat;lon;timestamp;P1;durP1;ratioP1;P2;durP2;ratioP2
71253;SDS011;59019;47.638;18.966;2023-07-13T00:00:02;10.60;;;3.50;;
71253;SDS011;59019;47.638;18.966;2023-07-13T00:02:50;8.35;;;2.60;;
71253;SDS011;59019;47.638;18.966;2023-07-13T00:05:39;7.95;;;2.28;;
71253;SDS011;59019;47.638;18.966;2023-07-13T00:08:26;6.53;;;2.47;;
71253;SDS011;59019;47.638;18.966;2023-07-13T00:11:15;7.82;;;2.40;;
71253;SDS011;59019;47.638;18.966;2023-07-13T00:14:02;6.18;;;2.08;;
71253;SDS011;59019;47.638;18.966;2023-07-13T00:16:48;6.10;;;1.90;;
71253;SDS011;59019;47.638;18.966;2023-07-13T00:19:34;6.63;;;1.95;;
71253;SDS011;59019;47.638;18.966;2023-07-13T00:22:21;6.82;;;1.90;;
71253;SDS011;59019;47.638;18.966;2023-07-13T00:25:11;6.83;;;1.90;;
71253;SDS011;59019;47.638;18.966;2023-07-13T00:27:57;6.13;;;2.20;;
71253;SDS011;59019;47.638;18.966;2023-07-13T00:30:43;9.05;;;2.00;;
71253;SDS011;59019;47.638;18.966;2023-07-13T00:33:29;5.35;;;1.80;;
71253;SDS011;59019;47.638;18.966;2023-07-13T00:36:15;7.23;;;1.80;;
71253;SDS011;59019;47.638;18.966;2023-07-13T00:39:01;5.37;;;1.60;;
71253;SDS011;59019;47.638;18.966;2023-07-13T00:41:49;4.70;;;1.77;;
71253;SDS011;59019;47.638;18.966;2023-07-13T00:44:35;5.07;;;1.77;;
71253;SDS011;59019;47.638;18.966;2023-07-13T00:47:21;5.47;;;1.73;;
71253;SDS011;59019;47.638;18.966;2023-07-13T00:50:07;5.35;;;1.65;;
71253;SDS011;59019;47.638;18.966;2023-07-13T00:52:56;4.60;;;1.75;;
71253;SDS011;59019;47.638;18.966;2023-07-13T00:55:43;5.13;;;1.58;;
71253;SDS011;59019;47.638;18.966;2023-07-13T00:58:29;4.40;;;1.42;;
71253;SDS011;59019;47.638;18.966;2023-07-13T01:01:15;5.45;;;1.58;;
71253;SDS011;59019;47.638;18.966;2023-07-13T01:04:02;5.00;;;1.60;;
71253;SDS011;59019;47.638;18.966;2023-07-13T01:06:48;4.93;;;1.60;;
71253;SDS011;59019;47.638;18.966;2023-07-13T01:09:34;5.05;;;1.65;;
71253;SDS011;59019;47.638;18.966;2023-07-13T01:12:20;4.78;;;1.70;;
71253;SDS011;59019;47.638;18.966;2023-07-13T01:15:32;4.60;;;1.50;;
71253;SDS011;59019;47.638;18.966;2023-07-13T01:18:38;5.45;;;1.65;;
71253;SDS011;59019;47.638;18.966;2023-07-13T01:21:24;3.45;;;1.30;;
71253;SDS011;59019;47.638;18.966;2023-07-13T01:24:11;3.58;;;1.40;;
71253;SDS011;59019;47.638;18.966;2023-07-13T01:26:57;3.42;;;1.30;;
71253;SDS011;59019;47.638;18.966;2023-07-13T01:29:43;4.90;;;1.60;;
71253;SDS011;59019;47.638;18.966;2023-07-13T01:32:33;4.07;;;1.70;;
71253;SDS011;59019;47.638;18.966;2023-07-13T01:35:19;4.20;;;1.55;;
71253;SDS011;59019;47.638;18.966;2023-07-13T01:38:05;3.47;;;1.50;;
71253;SDS011;59019;47.638;18.966;2023-07-13T01:40:51;4.70;;;1.67;;
71253;SDS011;59019;47.638;18.966;2023-07-13T01:43:38;4.53;;;1.60;;
71253;SDS011;59019;47.638;18.966;2023-07-13T01:46:24;4.68;;;1.60;;
71253;SDS011;59019;47.638;18.966;2023-07-13T01:49:10;4.53;;;1.50;;
71253;SDS011;59019;47.638;18.966;2023-07-13T01:51:56;5.10;;;1.53;;
71253;SDS011;59019;47.638;18.966;2023-07-13T01:54:42;3.63;;;1.45;;
71253;SDS011;59019;47.638;18.966;2023-07-13T01:57:27;3.47;;;1.50;;
71253;SDS011;59019;47.638;18.966;2023-07-13T02:00:13;3.90;;;1.40;;
71253;SDS011;59019;47.638;18.966;2023-07-13T02:02:59;5.10;;;1.60;;
71253;SDS011;59019;47.638;18.966;2023-07-13T02:05:45;5.13;;;1.60;;
71253;SDS011;59019;47.638;18.966;2023-07-13T02:08:32;3.90;;;1.40;;
71253;SDS011;59019;47.638;18.966;2023-07-13T02:11:19;5.20;;;1.50;;
71253;SDS011;59019;47.638;18.966;2023-07-13T02:14:04;4.93;;;1.40;;
71253;SDS011;59019;47.638;18.966;2023-07-13T02:16:50;4.13;;;1.60;;
71253;SDS011;59019;47.638;18.966;2023-07-13T02:19:36;6.47;;;2.00;;
71253;SDS011;59019;47.638;18.966;2023-07-13T02:22:22;5.97;;;1.67;;
71253;SDS011;59019;47.638;18.966;2023-07-13T02:25:09;5.90;;;1.67;;
71253;SDS011;59019;47.638;18.966;2023-07-13T02:27:55;4.35;;;1.40;;
71253;SDS011;59019;47.638;18.966;2023-07-13T02:30:41;4.13;;;1.40;;
71253;SDS011;59019;47.638;18.966;2023-07-13T02:33:27;4.03;;;1.43;;
71253;SDS011;59019;47.638;18.966;2023-07-13T02:36:12;4.22;;;1.50;;
71253;SDS011;59019;47.638;18.966;2023-07-13T02:39:00;4.78;;;1.60;;
71253;SDS011;59019;47.638;18.966;2023-07-13T02:41:48;4.65;;;1.83;;
71253;SDS011;59019;47.638;18.966;2023-07-13T02:44:33;5.53;;;1.50;;
71253;SDS011;59019;47.638;18.966;2023-07-13T02:47:19;4.90;;;1.37;;
71253;SDS011;59019;47.638;18.966;2023-07-13T02:50:05;4.05;;;1.30;;
71253;SDS011;59019;47.638;18.966;2023-07-13T02:52:51;5.10;;;1.20;;
71253;SDS011;59019;47.638;18.966;2023-07-13T02:55:37;4.55;;;1.58;;
71253;SDS011;59019;47.638;18.966;2023-07-13T02:58:23;4.35;;;1.65;;
71253;SDS011;59019;47.638;18.966;2023-07-13T03:01:10;5.38;;;1.42;;
71253;SDS011;59019;47.638;18.966;2023-07-13T03:03:56;7.13;;;1.60;;
71253;SDS011;59019;47.638;18.966;2023-07-13T03:06:42;3.75;;;1.58;;
71253;SDS011;59019;47.638;18.966;2023-07-13T03:09:28;4.47;;;1.60;;
71253;SDS011;59019;47.638;18.966;2023-07-13T03:12:13;5.60;;;1.50;;
71253;SDS011;59019;47.638;18.966;2023-07-13T03:14:59;4.18;;;1.25;;
71253;SDS011;59019;47.638;18.966;2023-07-13T03:17:45;5.37;;;1.40;;
71253;SDS011;59019;47.638;18.966;2023-07-13T03:20:34;7.20;;;1.58;;
71253;SDS011;59019;47.638;18.966;2023-07-13T03:23:20;4.53;;;1.30;;
71253;SDS011;59019;47.638;18.966;2023-07-13T03:26:08;3.92;;;1.35;;
71253;SDS011;59019;47.638;18.966;2023-07-13T03:29:02;4.50;;;1.70;;
71253;SDS011;59019;47.638;18.966;2023-07-13T03:31:48;5.32;;;1.40;;
71253;SDS011;59019;47.638;18.966;2023-07-13T03:34:34;5.00;;;1.50;;
71253;SDS011;59019;47.638;18.966;2023-07-13T03:37:20;5.22;;;1.85;;
71253;SDS011;59019;47.638;18.966;2023-07-13T03:40:06;8.43;;;2.22;;
71253;SDS011;59019;47.638;18.966;2023-07-13T03:42:54;4.17;;;1.33;;
71253;SDS011;59019;47.638;18.966;2023-07-13T03:45:40;3.85;;;1.52;;
71253;SDS011;59019;47.638;18.966;2023-07-13T03:48:26;4.95;;;1.30;;
71253;SDS011;59019;47.638;18.966;2023-07-13T03:51:12;4.73;;;1.67;;
71253;SDS011;59019;47.638;18.966;2023-07-13T03:53:59;3.90;;;1.40;;
71253;SDS011;59019;47.638;18.966;2023-07-13T03:56:45;4.50;;;1.40;;
71253;SDS011;59019;47.638;18.966;2023-07-13T03:59:31;5.40;;;1.55;;
71253;SDS011;59019;47.638;18.966;2023-07-13T04:02:17;5.05;;;1.77;;
71253;SDS011;59019;47.638;18.966;2023-07-13T04:05:04;4.25;;;1.60;;
71253;SDS011;59019;47.638;18.966;2023-07-13T04:07:50;3.65;;;1.45;;
71253;SDS011;59019;47.638;18.966;2023-07-13T04:10:36;3.45;;;1.40;;
71253;SDS011;59019;47.638;18.966;2023-07-13T04:13:21;5.65;;;1.70;;
71253;SDS011;59019;47.638;18.966;2023-07-13T04:16:08;4.85;;;1.73;;
71253;SDS011;59019;47.638;18.966;2023-07-13T04:18:54;4.95;;;2.35;;
71253;SDS011;59019;47.638;18.966;2023-07-13T04:21:44;6.68;;;2.67;;
71253;SDS011;59019;47.638;18.966;2023-07-13T04:24:30;7.30;;;2.70;;
71253;SDS011;59019;47.638;18.966;2023-07-13T04:27:16;5.35;;;2.33;;
71253;SDS011;59019;47.638;18.966;2023-07-13T04:30:02;4.72;;;2.22;;
71253;SDS011;59019;47.638;18.966;2023-07-13T04:32:50;5.32;;;2.20;;
71253;SDS011;59019;47.638;18.966;2023-07-13T04:35:37;6.55;;;2.40;;
71253;SDS011;59019;47.638;18.966;2023-07-13T04:38:23;5.82;;;2.30;;
71253;SDS011;59019;47.638;18.966;2023-07-13T04:41:12;5.60;;;2.40;;
71253;SDS011;59019;47.638;18.966;2023-07-13T04:43:59;6.18;;;2.58;;
71253;SDS011;59019;47.638;18.966;2023-07-13T04:46:45;7.32;;;2.38;;
71253;SDS011;59019;47.638;18.966;2023-07-13T04:49:31;6.10;;;2.72;;
71253;SDS011;59019;47.638;18.966;2023-07-13T04:52:17;5.43;;;2.80;;
71253;SDS011;59019;47.638;18.966;2023-07-13T04:55:04;6.95;;;2.88;;
71253;SDS011;59019;47.638;18.966;2023-07-13T04:57:50;6.75;;;2.65;;
71253;SDS011;59019;47.638;18.966;2023-07-13T05:00:36;7.28;;;3.22;;
71253;SDS011;59019;47.638;18.966;2023-07-13T05:03:22;8.13;;;3.80;;
71253;SDS011;59019;47.638;18.966;2023-07-13T05:06:08;9.05;;;4.20;;
71253;SDS011;59019;47.638;18.966;2023-07-13T05:08:55;12.32;;;4.45;;
71253;SDS011;59019;47.638;18.966;2023-07-13T05:11:41;10.15;;;4.57;;
71253;SDS011;59019;47.638;18.966;2023-07-13T05:14:27;10.77;;;5.30;;
71253;SDS011;59019;47.638;18.966;2023-07-13T05:17:13;11.38;;;5.93;;
71253;SDS011;59019;47.638;18.966;2023-07-13T05:19:58;10.00;;;5.90;;
71253;SDS011;59019;47.638;18.966;2023-07-13T05:22:44;9.73;;;5.13;;
71253;SDS011;59019;47.638;18.966;2023-07-13T05:25:32;11.47;;;5.17;;
71253;SDS011;59019;47.638;18.966;2023-07-13T05:28:18;8.63;;;4.50;;
71253;SDS011;59019;47.638;18.966;2023-07-13T05:31:04;8.70;;;4.80;;
71253;SDS011;59019;47.638;18.966;2023-07-13T05:33:52;9.13;;;3.90;;
71253;SDS011;59019;47.638;18.966;2023-07-13T05:36:37;8.75;;;4.05;;
71253;SDS011;59019;47.638;18.966;2023-07-13T05:39:23;10.63;;;3.60;;
71253;SDS011;59019;47.638;18.966;2023-07-13T05:42:11;10.27;;;3.63;;
71253;SDS011;59019;47.638;18.966;2023-07-13T05:44:57;8.35;;;3.05;;
71253;SDS011;59019;47.638;18.966;2023-07-13T05:47:43;8.10;;;3.00;;
71253;SDS011;59019;47.638;18.966;2023-07-13T05:50:29;6.32;;;2.50;;
71253;SDS011;59019;47.638;18.966;2023-07-13T05:53:15;9.32;;;2.85;;
71253;SDS011;59019;47.638;18.966;2023-07-13T05:56:00;6.20;;;2.60;;
71253;SDS011;59019;47.638;18.966;2023-07-13T05:58:47;5.65;;;2.25;;
71253;SDS011;59019;47.638;18.966;2023-07-13T06:01:34;6.03;;;2.40;;
71253;SDS011;59019;47.638;18.966;2023-07-13T06:04:20;5.72;;;2.20;;
71253;SDS011;59019;47.638;18.966;2023-07-13T06:07:06;5.60;;;2.30;;
71253;SDS011;59019;47.638;18.966;2023-07-13T06:09:51;8.57;;;2.60;;
71253;SDS011;59019;47.638;18.966;2023-07-13T06:12:37;6.10;;;2.60;;
71253;SDS011;59019;47.638;18.966;2023-07-13T06:15:23;5.20;;;2.42;;
71253;SDS011;59019;47.638;18.966;2023-07-13T06:18:09;6.53;;;2.30;;
71253;SDS011;59019;47.638;18.966;2023-07-13T06:20:55;5.30;;;2.00;;
71253;SDS011;59019;47.638;18.966;2023-07-13T06:23:40;4.68;;;1.65;;
71253;SDS011;59019;47.638;18.966;2023-07-13T06:26:26;4.75;;;1.70;;
71253;SDS011;59019;47.638;18.966;2023-07-13T06:29:13;4.70;;;1.50;;
71253;SDS011;59019;47.638;18.966;2023-07-13T06:31:59;4.97;;;1.60;;
71253;SDS011;59019;47.638;18.966;2023-07-13T06:34:45;5.43;;;1.60;;
71253;SDS011;59019;47.638;18.966;2023-07-13T06:37:31;4.65;;;1.63;;
71253;SDS011;59019;47.638;18.966;2023-07-13T06:40:16;4.55;;;1.80;;
71253;SDS011;59019;47.638;18.966;2023-07-13T06:43:04;5.00;;;1.88;;
71253;SDS011;59019;47.638;18.966;2023-07-13T06:45:50;3.97;;;1.63;;
71253;SDS011;59019;47.638;18.966;2023-07-13T06:48:36;4.60;;;1.90;;
71253;SDS011;59019;47.638;18.966;2023-07-13T06:51:22;4.35;;;1.70;;
71253;SDS011;59019;47.638;18.966;2023-07-13T06:54:07;4.78;;;1.90;;
71253;SDS011;59019;47.638;18.966;2023-07-13T06:56:53;5.20;;;2.00;;
71253;SDS011;59019;47.638;18.966;2023-07-13T06:59:39;4.70;;;1.92;;
71253;SDS011;59019;47.638;18.966;2023-07-13T07:02:25;3.90;;;1.90;;
71253;SDS011;59019;47.638;18.966;2023-07-13T07:05:11;6.15;;;1.90;;
71253;SDS011;59019;47.638;18.966;2023-07-13T07:07:57;4.55;;;1.80;;
71253;SDS011;59019;47.638;18.966;2023-07-13T07:10:42;5.30;;;1.83;;
71253;SDS011;59019;47.638;18.966;2023-07-13T07:13:29;5.57;;;1.85;;
71253;SDS011;59019;47.638;18.966;2023-07-13T07:16:15;4.40;;;1.75;;
71253;SDS011;59019;47.638;18.966;2023-07-13T07:19:02;5.20;;;1.80;;
71253;SDS011;59019;47.638;18.966;2023-07-13T07:21:48;4.60;;;1.80;;
71253;SDS011;59019;47.638;18.966;2023-07-13T07:24:33;5.07;;;2.05;;
71253;SDS011;59019;47.638;18.966;2023-07-13T07:27:19;4.72;;;2.00;;
71253;SDS011;59019;47.638;18.966;2023-07-13T07:30:06;4.95;;;2.20;;
71253;SDS011;59019;47.638;18.966;2023-07-13T07:32:52;6.68;;;2.20;;
71253;SDS011;59019;47.638;18.966;2023-07-13T07:35:38;5.33;;;2.27;;
71253;SDS011;59019;47.638;18.966;2023-07-13T07:38:24;5.20;;;2.13;;
71253;SDS011;59019;47.638;18.966;2023-07-13T07:41:10;6.07;;;2.25;;
71253;SDS011;59019;47.638;18.966;2023-07-13T07:43:56;5.72;;;2.28;;
71253;SDS011;59019;47.638;18.966;2023-07-13T07:46:42;5.67;;;2.43;;
71253;SDS011;59019;47.638;18.966;2023-07-13T07:49:28;5.00;;;2.10;;
71253;SDS011;59019;47.638;18.966;2023-07-13T07:52:14;4.93;;;2.30;;
71253;SDS011;59019;47.638;18.966;2023-07-13T07:54:59;4.80;;;2.30;;
71253;SDS011;59019;47.638;18.966;2023-07-13T07:57:45;6.78;;;2.30;;
71253;SDS011;59019;47.638;18.966;2023-07-13T08:00:31;5.72;;;2.20;;
71253;SDS011;59019;47.638;18.966;2023-07-13T08:03:17;6.32;;;2.05;;
71253;SDS011;59019;47.638;18.966;2023-07-13T08:06:04;5.07;;;2.10;;
71253;SDS011;59019;47.638;18.966;2023-07-13T08:08:50;5.03;;;2.20;;
71253;SDS011;59019;47.638;18.966;2023-07-13T08:11:36;6.53;;;2.22;;
71253;SDS011;59019;47.638;18.966;2023-07-13T08:14:22;6.22;;;2.40;;
71253;SDS011;59019;47.638;18.966;2023-07-13T08:17:07;5.13;;;2.40;;
71253;SDS011;59019;47.638;18.966;2023-07-13T08:19:53;4.80;;;2.50;;
71253;SDS011;59019;47.638;18.966;2023-07-13T08:22:39;4.93;;;2.38;;
71253;SDS011;59019;47.638;18.966;2023-07-13T08:25:25;6.38;;;2.80;;
71253;SDS011;59019;47.638;18.966;2023-07-13T08:28:11;5.57;;;2.40;;
71253;SDS011;59019;47.638;18.966;2023-07-13T08:31:00;5.03;;;2.38;;
71253;SDS011;59019;47.638;18.966;2023-07-13T08:33:47;5.87;;;2.60;;
71253;SDS011;59019;47.638;18.966;2023-07-13T08:36:33;4.32;;;2.30;;
71253;SDS011;59019;47.638;18.966;2023-07-13T08:39:19;8.20;;;2.80;;
71253;SDS011;59019;47.638;18.966;2023-07-13T08:42:14;5.47;;;2.50;;
71253;SDS011;59019;47.638;18.966;2023-07-13T08:45:07;5.07;;;2.50;;
71253;SDS011;59019;47.638;18.966;2023-07-13T08:48:08;6.25;;;2.65;;
71253;SDS011;59019;47.638;18.966;2023-07-13T08:51:03;5.28;;;2.53;;
71253;SDS011;59019;47.638;18.966;2023-07-13T08:53:58;6.75;;;2.60;;
71253;SDS011;59019;47.638;18.966;2023-07-13T08:56:47;5.97;;;2.70;;
71253;SDS011;59019;47.638;18.966;2023-07-13T08:59:38;5.95;;;2.60;;
71253;SDS011;59019;47.638;18.966;2023-07-13T09:05:33;4.80;;;2.58;;
71253;SDS011;59019;47.638;18.966;2023-07-13T09:17:35;5.00;;;2.60;;
71253;SDS011;59019;47.638;18.966;2023-07-13T09:20:32;5.25;;;2.80;;
71253;SDS011;59019;47.638;18.966;2023-07-13T09:23:23;6.40;;;2.80;;
71253;SDS011;59019;47.638;18.966;2023-07-13T09:26:18;11.85;;;3.97;;
71253;SDS011;59019;47.638;18.966;2023-07-13T09:29:19;12.07;;;3.70;;
71253;SDS011;59019;47.638;18.966;2023-07-13T09:32:09;6.28;;;3.25;;
71253;SDS011;59019;47.638;18.966;2023-07-13T09:35:00;7.38;;;3.30;;
71253;SDS011;59019;47.638;18.966;2023-07-13T09:37:47;5.23;;;3.20;;
71253;SDS011;59019;47.638;18.966;2023-07-13T09:40:36;6.63;;;3.07;;
71253;SDS011;59019;47.638;18.966;2023-07-13T09:46:54;4.40;;;2.92;;
71253;SDS011;59019;47.638;18.966;2023-07-13T09:49:40;6.00;;;2.90;;
71253;SDS011;59019;47.638;18.966;2023-07-13T09:53:02;5.43;;;3.00;;
71253;SDS011;59019;47.638;18.966;2023-07-13T09:55:45;5.20;;;3.13;;
71253;SDS011;59019;47.638;18.966;2023-07-13T09:58:32;5.33;;;3.13;;
71253;SDS011;59019;47.638;18.966;2023-07-13T10:01:37;5.55;;;3.00;;
71253;SDS011;59019;47.638;18.966;2023-07-13T10:04:33;6.15;;;3.38;;
71253;SDS011;59019;47.638;18.966;2023-07-13T10:07:19;6.47;;;3.40;;
71253;SDS011;59019;47.638;18.966;2023-07-13T10:10:15;6.13;;;3.20;;
71253;SDS011;59019;47.638;18.966;2023-07-13T10:13:05;5.10;;;2.90;;
71253;SDS011;59019;47.638;18.966;2023-07-13T10:16:06;6.57;;;3.10;;
71253;SDS011;59019;47.638;18.966;2023-07-13T10:18:54;6.13;;;2.88;;
71253;SDS011;59019;47.638;18.966;2023-07-13T10:21:47;4.78;;;3.00;;
71253;SDS011;59019;47.638;18.966;2023-07-13T10:24:36;6.28;;;3.42;;
71253;SDS011;59019;47.638;18.966;2023-07-13T10:27:31;5.47;;;3.10;;
71253;SDS011;59019;47.638;18.966;2023-07-13T10:30:24;5.90;;;3.28;;
71253;SDS011;59019;47.638;18.966;2023-07-13T10:33:14;5.37;;;3.20;;
71253;SDS011;59019;47.638;18.966;2023-07-13T10:36:10;5.10;;;3.00;;
71253;SDS011;59019;47.638;18.966;2023-07-13T10:42:11;6.40;;;2.80;;
71253;SDS011;59019;47.638;18.966;2023-07-13T10:45:20;6.03;;;3.08;;
71253;SDS011;59019;47.638;18.966;2023-07-13T10:48:09;5.55;;;2.90;;
71253;SDS011;59019;47.638;18.966;2023-07-13T10:50:59;5.20;;;2.93;;
71253;SDS011;59019;47.638;18.966;2023-07-13T10:53:47;5.43;;;3.05;;
71253;SDS011;59019;47.638;18.966;2023-07-13T11:00:15;5.13;;;2.80;;
71253;SDS011;59019;47.638;18.966;2023-07-13T11:03:03;5.30;;;2.78;;
71253;SDS011;59019;47.638;18.966;2023-07-13T11:05:50;6.35;;;2.80;;
71253;SDS011;59019;47.638;18.966;2023-07-13T11:08:53;6.30;;;2.78;;
71253;SDS011;59019;47.638;18.966;2023-07-13T11:11:40;4.38;;;2.55;;
71253;SDS011;59019;47.638;18.966;2023-07-13T11:17:54;5.18;;;2.70;;
71253;SDS011;59019;47.638;18.966;2023-07-13T11:20:45;4.78;;;2.60;;
71253;SDS011;59019;47.638;18.966;2023-07-13T11:23:34;6.75;;;2.70;;
71253;SDS011;59019;47.638;18.966;2023-07-13T11:29:36;5.00;;;2.67;;
71253;SDS011;59019;47.638;18.966;2023-07-13T11:32:30;5.25;;;2.47;;
71253;SDS011;59019;47.638;18.966;2023-07-13T11:35:19;4.80;;;2.50;;
71253;SDS011;59019;47.638;18.966;2023-07-13T11:38:16;5.60;;;2.53;;
71253;SDS011;59019;47.638;18.966;2023-07-13T11:41:15;5.13;;;2.72;;
71253;SDS011;59019;47.638;18.966;2023-07-13T11:46:59;5.10;;;2.92;;
71253;SDS011;59019;47.638;18.966;2023-07-13T11:49:55;5.07;;;2.72;;
71253;SDS011;59019;47.638;18.966;2023-07-13T11:52:41;4.43;;;2.72;;
71253;SDS011;59019;47.638;18.966;2023-07-13T11:55:29;5.45;;;3.05;;
71253;SDS011;59019;47.638;18.966;2023-07-13T11:58:17;5.95;;;3.13;;
71253;SDS011;59019;47.638;18.966;2023-07-13T12:01:06;5.38;;;3.00;;
71253;SDS011;59019;47.638;18.966;2023-07-13T12:04:02;4.93;;;2.92;;
71253;SDS011;59019;47.638;18.966;2023-07-13T12:06:53;5.20;;;3.03;;
71253;SDS011;59019;47.638;18.966;2023-07-13T12:09:41;5.90;;;3.10;;
71253;SDS011;59019;47.638;18.966;2023-07-13T12:12:28;5.60;;;3.10;;
71253;SDS011;59019;47.638;18.966;2023-07-13T12:15:15;5.40;;;3.00;;
71253;SDS011;59019;47.638;18.966;2023-07-13T12:18:00;6.40;;;2.90;;
71253;SDS011;59019;47.638;18.966;2023-07-13T12:20:47;5.43;;;3.00;;
71253;SDS011;59019;47.638;18.966;2023-07-13T12:23:34;5.35;;;3.05;;
71253;SDS011;59019;47.638;18.966;2023-07-13T12:26:21;4.95;;;2.90;;
71253;SDS011;59019;47.638;18.966;2023-07-13T12:29:07;4.60;;;3.00;;
71253;SDS011;59019;47.638;18.966;2023-07-13T12:31:53;5.72;;;3.20;;
71253;SDS011;59019;47.638;18.966;2023-07-13T12:34:54;5.97;;;3.10;;
71253;SDS011;59019;47.638;18.966;2023-07-13T12:37:42;5.78;;;3.08;;
71253;SDS011;59019;47.638;18.966;2023-07-13T12:40:32;6.15;;;3.00;;
71253;SDS011;59019;47.638;18.966;2023-07-13T12:43:19;5.60;;;3.25;;
71253;SDS011;59019;47.638;18.966;2023-07-13T12:46:19;5.18;;;3.05;;
71253;SDS011;59019;47.638;18.966;2023-07-13T12:49:08;6.40;;;3.23;;
71253;SDS011;59019;47.638;18.966;2023-07-13T12:51:59;7.30;;;3.08;;
71253;SDS011;59019;47.638;18.966;2023-07-13T12:54:54;5.80;;;3.05;;
71253;SDS011;59019;47.638;18.966;2023-07-13T12:57:56;5.88;;;3.20;;
71253;SDS011;59019;47.638;18.966;2023-07-13T13:00:47;4.87;;;3.00;;
71253;SDS011;59019;47.638;18.966;2023-07-13T13:03:45;5.13;;;3.00;;
71253;SDS011;59019;47.638;18.966;2023-07-13T13:06:32;4.85;;;2.80;;
71253;SDS011;59019;47.638;18.966;2023-07-13T13:09:21;5.43;;;3.15;;
71253;SDS011;59019;47.638;18.966;2023-07-13T13:12:08;5.10;;;3.00;;
71253;SDS011;59019;47.638;18.966;2023-07-13T13:14:55;4.87;;;3.10;;
71253;SDS011;59019;47.638;18.966;2023-07-13T13:17:41;6.22;;;3.22;;
71253;SDS011;59019;47.638;18.966;2023-07-13T13:20:27;5.20;;;3.10;;
71253;SDS011;59019;47.638;18.966;2023-07-13T13:23:14;5.30;;;2.90;;
71253;SDS011;59019;47.638;18.966;2023-07-13T13:26:08;5.05;;;3.05;;
71253;SDS011;59019;47.638;18.966;2023-07-13T13:28:58;5.75;;;3.17;;
71253;SDS011;59019;47.638;18.966;2023-07-13T13:31:44;4.82;;;3.00;;
71253;SDS011;59019;47.638;18.966;2023-07-13T13:34:31;5.80;;;3.20;;
71253;SDS011;59019;47.638;18.966;2023-07-13T13:37:17;4.95;;;2.90;;
71253;SDS011;59019;47.638;18.966;2023-07-13T13:40:17;5.40;;;3.05;;
71253;SDS011;59019;47.638;18.966;2023-07-13T13:43:12;5.13;;;2.60;;
71253;SDS011;59019;47.638;18.966;2023-07-13T13:46:13;5.33;;;2.87;;
71253;SDS011;59019;47.638;18.966;2023-07-13T13:49:04;5.10;;;3.20;;
71253;SDS011;59019;47.638;18.966;2023-07-13T13:51:50;6.10;;;3.00;;
71253;SDS011;59019;47.638;18.966;2023-07-13T13:54:36;5.85;;;3.20;;
71253;SDS011;59019;47.638;18.966;2023-07-13T13:57:25;5.35;;;3.10;;
71253;SDS011;59019;47.638;18.966;2023-07-13T14:00:12;5.72;;;3.05;;
71253;SDS011;59019;47.638;18.966;2023-07-13T14:02:59;5.25;;;3.13;;
71253;SDS011;59019;47.638;18.966;2023-07-13T14:05:46;4.97;;;3.00;;
71253;SDS011;59019;47.638;18.966;2023-07-13T14:08:32;4.73;;;3.00;;
71253;SDS011;59019;47.638;18.966;2023-07-13T14:11:18;6.55;;;3.10;;
71253;SDS011;59019;47.638;18.966;2023-07-13T14:14:05;4.75;;;3.00;;
71253;SDS011;59019;47.638;18.966;2023-07-13T14:16:55;4.90;;;2.90;;
71253;SDS011;59019;47.638;18.966;2023-07-13T14:19:41;5.00;;;3.03;;
71253;SDS011;59019;47.638;18.966;2023-07-13T14:22:27;5.13;;;2.90;;
71253;SDS011;59019;47.638;18.966;2023-07-13T14:25:13;4.97;;;2.70;;
71253;SDS011;59019;47.638;18.966;2023-07-13T14:28:04;4.43;;;2.72;;
71253;SDS011;59019;47.638;18.966;2023-07-13T14:31:16;6.10;;;2.80;;
71253;SDS011;59019;47.638;18.966;2023-07-13T14:34:02;4.85;;;2.70;;
71253;SDS011;59019;47.638;18.966;2023-07-13T14:36:48;5.00;;;2.77;;
71253;SDS011;59019;47.638;18.966;2023-07-13T14:39:35;5.37;;;2.80;;
71253;SDS011;59019;47.638;18.966;2023-07-13T14:42:21;6.35;;;2.67;;
71253;SDS011;59019;47.638;18.966;2023-07-13T14:45:14;5.60;;;3.00;;
71253;SDS011;59019;47.638;18.966;2023-07-13T14:48:01;5.10;;;2.87;;
71253;SDS011;59019;47.638;18.966;2023-07-13T14:50:49;5.72;;;2.95;;
71253;SDS011;59019;47.638;18.966;2023-07-13T14:53:41;5.28;;;2.85;;
71253;SDS011;59019;47.638;18.966;2023-07-13T14:56:27;6.72;;;3.00;;
71253;SDS011;59019;47.638;18.966;2023-07-13T14:59:13;5.90;;;3.00;;
71253;SDS011;59019;47.638;18.966;2023-07-13T15:01:59;4.85;;;2.70;;
71253;SDS011;59019;47.638;18.966;2023-07-13T15:04:45;4.82;;;2.70;;
71253;SDS011;59019;47.638;18.966;2023-07-13T15:07:31;5.75;;;2.78;;
71253;SDS011;59019;47.638;18.966;2023-07-13T15:13:15;6.70;;;2.88;;
71253;SDS011;59019;47.638;18.966;2023-07-13T15:16:03;5.82;;;2.90;;
71253;SDS011;59019;47.638;18.966;2023-07-13T15:18:50;6.82;;;2.90;;
71253;SDS011;59019;47.638;18.966;2023-07-13T15:21:37;4.72;;;2.85;;
71253;SDS011;59019;47.638;18.966;2023-07-13T15:24:23;5.50;;;2.70;;
71253;SDS011;59019;47.638;18.966;2023-07-13T15:27:11;6.10;;;2.92;;
71253;SDS011;59019;47.638;18.966;2023-07-13T15:29:57;5.68;;;2.90;;
71253;SDS011;59019;47.638;18.966;2023-07-13T15:32:43;5.35;;;3.10;;
71253;SDS011;59019;47.638;18.966;2023-07-13T15:35:30;5.32;;;2.80;;
71253;SDS011;59019;47.638;18.966;2023-07-13T15:41:04;5.33;;;2.80;;
71253;SDS011;59019;47.638;18.966;2023-07-13T15:44:24;5.25;;;2.78;;
71253;SDS011;59019;47.638;18.966;2023-07-13T15:47:13;6.30;;;2.90;;
71253;SDS011;59019;47.638;18.966;2023-07-13T15:50:00;5.63;;;2.92;;
71253;SDS011;59019;47.638;18.966;2023-07-13T15:52:53;5.47;;;3.30;;
71253;SDS011;59019;47.638;18.966;2023-07-13T15:55:40;5.65;;;2.90;;
71253;SDS011;59019;47.638;18.966;2023-07-13T15:58:26;5.70;;;3.08;;
71253;SDS011;59019;47.638;18.966;2023-07-13T16:01:14;5.55;;;3.03;;
71253;SDS011;59019;47.638;18.966;2023-07-13T16:04:00;5.90;;;3.23;;
71253;SDS011;59019;47.638;18.966;2023-07-13T16:06:45;5.47;;;3.00;;
71253;SDS011;59019;47.638;18.966;2023-07-13T16:09:32;5.85;;;3.22;;
71253;SDS011;59019;47.638;18.966;2023-07-13T16:12:18;5.75;;;2.80;;
71253;SDS011;59019;47.638;18.966;2023-07-13T16:15:04;5.03;;;3.10;;
71253;SDS011;59019;47.638;18.966;2023-07-13T16:18:04;5.75;;;3.33;;
71253;SDS011;59019;47.638;18.966;2023-07-13T16:20:50;5.90;;;3.40;;
71253;SDS011;59019;47.638;18.966;2023-07-13T16:23:36;6.07;;;3.20;;
71253;SDS011;59019;47.638;18.966;2023-07-13T16:29:25;5.70;;;3.10;;
71253;SDS011;59019;47.638;18.966;2023-07-13T16:32:13;7.18;;;2.90;;
71253;SDS011;59019;47.638;18.966;2023-07-13T16:34:59;5.13;;;2.80;;
71253;SDS011;59019;47.638;18.966;2023-07-13T16:37:45;6.55;;;3.30;;
71253;SDS011;59019;47.638;18.966;2023-07-13T16:40:33;7.50;;;3.50;;
71253;SDS011;59019;47.638;18.966;2023-07-13T16:43:20;8.60;;;3.50;;
71253;SDS011;59019;47.638;18.966;2023-07-13T16:46:10;6.88;;;3.05;;
71253;SDS011;59019;47.638;18.966;2023-07-13T16:48:59;7.43;;;3.10;;
71253;SDS011;59019;47.638;18.966;2023-07-13T16:51:46;5.68;;;3.20;;
71253;SDS011;59019;47.638;18.966;2023-07-13T16:54:33;9.68;;;3.45;;
71253;SDS011;59019;47.638;18.966;2023-07-13T16:57:22;6.13;;;3.08;;
71253;SDS011;59019;47.638;18.966;2023-07-13T17:03:14;6.22;;;3.40;;
71253;SDS011;59019;47.638;18.966;2023-07-13T17:06:00;7.43;;;3.63;;
71253;SDS011;59019;47.638;18.966;2023-07-13T17:08:57;7.32;;;3.65;;
71253;SDS011;59019;47.638;18.966;2023-07-13T17:11:44;6.05;;;2.90;;
71253;SDS011;59019;47.638;18.966;2023-07-13T17:14:30;7.40;;;2.83;;
71253;SDS011;59019;47.638;18.966;2023-07-13T17:17:29;6.53;;;3.08;;
71253;SDS011;59019;47.638;18.966;2023-07-13T17:20:20;5.82;;;3.33;;